Aviation Digital Data Service (ADDS)

Output produced by METARs form (0045 UTC 24 November 2014)
found at http://www.aviationweather.gov/adds/metars/
 
KCMI 232340Z 2400/2424 12010KT 4SM RA BR OVC003 
     FM240200 17012KT 2SM -SHRA BR OVC004 
     FM240800 21012KT 4SM -SHRA BR OVC004 
     FM241100 23016G23KT 4SM BR VCSH OVC007 
     FM241600 25022G32KT 2SM -RASN BR OVC012 
     FM241800 24024G35KT P6SM -SN OVC015